sensor_id;sensor_type;location;lat;lon;timestamp;P1;durP1;ratioP1;P2;durP2;ratioP2
54923;SDS011;40825;52.270;20.984;2024-01-30T00:00:12;35.40;;;13.80;;
54923;SDS011;40825;52.270;20.984;2024-01-30T00:02:58;30.30;;;13.50;;
54923;SDS011;40825;52.270;20.984;2024-01-30T00:05:24;30.70;;;13.60;;
54923;SDS011;40825;52.270;20.984;2024-01-30T00:07:50;30.30;;;14.40;;
54923;SDS011;40825;52.270;20.984;2024-01-30T00:10:16;29.70;;;14.20;;
54923;SDS011;40825;52.270;20.984;2024-01-30T00:12:41;29.50;;;13.50;;
54923;SDS011;40825;52.270;20.984;2024-01-30T00:15:07;30.60;;;14.60;;
54923;SDS011;40825;52.270;20.984;2024-01-30T00:17:35;29.20;;;14.10;;
54923;SDS011;40825;52.270;20.984;2024-01-30T00:25:12;27.40;;;11.50;;
54923;SDS011;40825;52.270;20.984;2024-01-30T00:27:40;26.10;;;12.90;;
54923;SDS011;40825;52.270;20.984;2024-01-30T00:30:06;33.90;;;14.00;;
54923;SDS011;40825;52.270;20.984;2024-01-30T00:32:32;30.40;;;13.00;;
54923;SDS011;40825;52.270;20.984;2024-01-30T00:34:58;26.50;;;12.20;;
54923;SDS011;40825;52.270;20.984;2024-01-30T00:37:24;31.50;;;13.00;;
54923;SDS011;40825;52.270;20.984;2024-01-30T00:39:49;28.20;;;13.40;;
54923;SDS011;40825;52.270;20.984;2024-01-30T00:42:15;30.30;;;12.90;;
54923;SDS011;40825;52.270;20.984;2024-01-30T00:44:41;27.80;;;12.30;;
54923;SDS011;40825;52.270;20.984;2024-01-30T00:47:07;28.80;;;14.20;;
54923;SDS011;40825;52.270;20.984;2024-01-30T00:49:43;27.90;;;12.20;;
54923;SDS011;40825;52.270;20.984;2024-01-30T00:52:28;28.00;;;12.40;;
54923;SDS011;40825;52.270;20.984;2024-01-30T00:57:43;29.50;;;12.70;;
54923;SDS011;40825;52.270;20.984;2024-01-30T01:02:42;30.60;;;12.30;;
54923;SDS011;40825;52.270;20.984;2024-01-30T01:05:42;28.10;;;12.40;;
54923;SDS011;40825;52.270;20.984;2024-01-30T01:08:11;27.40;;;11.70;;
54923;SDS011;40825;52.270;20.984;2024-01-30T01:10:39;28.50;;;13.10;;
54923;SDS011;40825;52.270;20.984;2024-01-30T01:13:07;32.00;;;14.30;;
54923;SDS011;40825;52.270;20.984;2024-01-30T01:15:33;30.40;;;13.00;;
54923;SDS011;40825;52.270;20.984;2024-01-30T01:18:01;31.60;;;14.00;;
54923;SDS011;40825;52.270;20.984;2024-01-30T01:20:27;32.40;;;13.60;;
54923;SDS011;40825;52.270;20.984;2024-01-30T01:22:55;31.80;;;14.10;;
54923;SDS011;40825;52.270;20.984;2024-01-30T01:25:23;32.00;;;13.90;;
54923;SDS011;40825;52.270;20.984;2024-01-30T01:27:58;30.30;;;13.70;;
54923;SDS011;40825;52.270;20.984;2024-01-30T01:30:26;28.20;;;12.50;;
54923;SDS011;40825;52.270;20.984;2024-01-30T01:32:54;29.10;;;12.80;;
54923;SDS011;40825;52.270;20.984;2024-01-30T01:35:24;31.40;;;14.00;;
54923;SDS011;40825;52.270;20.984;2024-01-30T01:37:51;34.30;;;13.20;;
54923;SDS011;40825;52.270;20.984;2024-01-30T01:40:21;30.40;;;14.00;;
54923;SDS011;40825;52.270;20.984;2024-01-30T01:42:50;32.10;;;13.40;;
54923;SDS011;40825;52.270;20.984;2024-01-30T01:45:20;30.10;;;12.70;;
54923;SDS011;40825;52.270;20.984;2024-01-30T01:47:53;28.40;;;12.90;;
54923;SDS011;40825;52.270;20.984;2024-01-30T01:50:19;33.90;;;14.10;;
54923;SDS011;40825;52.270;20.984;2024-01-30T01:52:49;26.90;;;12.70;;
54923;SDS011;40825;52.270;20.984;2024-01-30T01:55:21;34.80;;;14.20;;
54923;SDS011;40825;52.270;20.984;2024-01-30T01:57:47;32.50;;;13.30;;
54923;SDS011;40825;52.270;20.984;2024-01-30T02:00:13;31.10;;;14.10;;
54923;SDS011;40825;52.270;20.984;2024-01-30T02:02:39;31.70;;;13.50;;
54923;SDS011;40825;52.270;20.984;2024-01-30T02:05:05;32.80;;;13.00;;
54923;SDS011;40825;52.270;20.984;2024-01-30T02:07:31;32.30;;;13.60;;
54923;SDS011;40825;52.270;20.984;2024-01-30T02:09:57;31.50;;;13.60;;
54923;SDS011;40825;52.270;20.984;2024-01-30T02:12:23;32.00;;;14.40;;
54923;SDS011;40825;52.270;20.984;2024-01-30T02:14:48;31.60;;;13.10;;
54923;SDS011;40825;52.270;20.984;2024-01-30T02:17:18;28.50;;;12.90;;
54923;SDS011;40825;52.270;20.984;2024-01-30T02:19:43;28.50;;;14.00;;
54923;SDS011;40825;52.270;20.984;2024-01-30T02:22:09;27.80;;;12.20;;
54923;SDS011;40825;52.270;20.984;2024-01-30T02:24:35;30.00;;;14.20;;
54923;SDS011;40825;52.270;20.984;2024-01-30T02:27:03;30.80;;;12.80;;
54923;SDS011;40825;52.270;20.984;2024-01-30T02:29:29;28.00;;;14.50;;
54923;SDS011;40825;52.270;20.984;2024-01-30T02:31:55;29.60;;;12.50;;
54923;SDS011;40825;52.270;20.984;2024-01-30T02:34:20;25.40;;;11.10;;
54923;SDS011;40825;52.270;20.984;2024-01-30T02:36:46;28.70;;;12.50;;
54923;SDS011;40825;52.270;20.984;2024-01-30T02:39:14;29.60;;;12.20;;
54923;SDS011;40825;52.270;20.984;2024-01-30T02:41:43;29.20;;;12.60;;
54923;SDS011;40825;52.270;20.984;2024-01-30T02:44:09;26.00;;;13.30;;
54923;SDS011;40825;52.270;20.984;2024-01-30T02:46:37;32.00;;;12.90;;
54923;SDS011;40825;52.270;20.984;2024-01-30T02:49:03;26.30;;;12.50;;
54923;SDS011;40825;52.270;20.984;2024-01-30T02:51:28;30.70;;;12.50;;
54923;SDS011;40825;52.270;20.984;2024-01-30T02:53:54;27.30;;;11.80;;
54923;SDS011;40825;52.270;20.984;2024-01-30T02:56:26;26.00;;;11.60;;
54923;SDS011;40825;52.270;20.984;2024-01-30T02:58:51;29.70;;;12.50;;
54923;SDS011;40825;52.270;20.984;2024-01-30T03:01:17;24.00;;;11.50;;
54923;SDS011;40825;52.270;20.984;2024-01-30T03:03:45;28.60;;;13.10;;
54923;SDS011;40825;52.270;20.984;2024-01-30T03:06:10;26.00;;;12.10;;
54923;SDS011;40825;52.270;20.984;2024-01-30T03:08:36;30.10;;;13.70;;
54923;SDS011;40825;52.270;20.984;2024-01-30T03:11:02;25.00;;;11.00;;
54923;SDS011;40825;52.270;20.984;2024-01-30T03:13:28;30.20;;;12.60;;
54923;SDS011;40825;52.270;20.984;2024-01-30T03:15:54;30.00;;;12.90;;
54923;SDS011;40825;52.270;20.984;2024-01-30T03:18:20;28.50;;;12.10;;
54923;SDS011;40825;52.270;20.984;2024-01-30T03:20:45;25.90;;;11.50;;
54923;SDS011;40825;52.270;20.984;2024-01-30T03:23:11;30.10;;;12.60;;
54923;SDS011;40825;52.270;20.984;2024-01-30T03:25:36;27.80;;;12.20;;
54923;SDS011;40825;52.270;20.984;2024-01-30T03:28:02;26.40;;;11.70;;
54923;SDS011;40825;52.270;20.984;2024-01-30T03:30:28;27.80;;;13.30;;
54923;SDS011;40825;52.270;20.984;2024-01-30T03:32:54;25.00;;;12.20;;
54923;SDS011;40825;52.270;20.984;2024-01-30T03:35:19;26.30;;;12.30;;
54923;SDS011;40825;52.270;20.984;2024-01-30T03:37:45;30.50;;;12.70;;
54923;SDS011;40825;52.270;20.984;2024-01-30T03:40:10;26.50;;;11.00;;
54923;SDS011;40825;52.270;20.984;2024-01-30T03:42:36;30.30;;;12.90;;
54923;SDS011;40825;52.270;20.984;2024-01-30T03:45:02;27.20;;;11.90;;
54923;SDS011;40825;52.270;20.984;2024-01-30T03:47:28;28.40;;;12.90;;
54923;SDS011;40825;52.270;20.984;2024-01-30T03:49:53;24.70;;;12.10;;
54923;SDS011;40825;52.270;20.984;2024-01-30T03:52:19;26.50;;;12.00;;
54923;SDS011;40825;52.270;20.984;2024-01-30T03:54:44;31.20;;;13.00;;
54923;SDS011;40825;52.270;20.984;2024-01-30T03:57:10;27.10;;;12.30;;
54923;SDS011;40825;52.270;20.984;2024-01-30T03:59:37;27.50;;;12.90;;
54923;SDS011;40825;52.270;20.984;2024-01-30T04:02:05;26.40;;;11.50;;
54923;SDS011;40825;52.270;20.984;2024-01-30T04:04:31;27.00;;;12.70;;
54923;SDS011;40825;52.270;20.984;2024-01-30T04:06:57;31.80;;;12.20;;
54923;SDS011;40825;52.270;20.984;2024-01-30T04:09:25;30.10;;;12.40;;
54923;SDS011;40825;52.270;20.984;2024-01-30T04:11:53;28.40;;;10.80;;
54923;SDS011;40825;52.270;20.984;2024-01-30T04:14:19;26.00;;;11.90;;
54923;SDS011;40825;52.270;20.984;2024-01-30T04:16:45;28.00;;;11.90;;
54923;SDS011;40825;52.270;20.984;2024-01-30T04:19:10;23.00;;;11.40;;
54923;SDS011;40825;52.270;20.984;2024-01-30T04:21:36;27.70;;;11.30;;
54923;SDS011;40825;52.270;20.984;2024-01-30T04:24:02;25.50;;;11.80;;
54923;SDS011;40825;52.270;20.984;2024-01-30T04:26:28;24.40;;;11.50;;
54923;SDS011;40825;52.270;20.984;2024-01-30T04:28:53;27.00;;;12.30;;
54923;SDS011;40825;52.270;20.984;2024-01-30T04:31:19;30.10;;;12.20;;
54923;SDS011;40825;52.270;20.984;2024-01-30T04:33:45;27.50;;;11.80;;
54923;SDS011;40825;52.270;20.984;2024-01-30T04:36:11;29.10;;;12.50;;
54923;SDS011;40825;52.270;20.984;2024-01-30T04:38:37;27.90;;;12.20;;
54923;SDS011;40825;52.270;20.984;2024-01-30T04:43:31;25.80;;;11.90;;
54923;SDS011;40825;52.270;20.984;2024-01-30T04:46:00;29.40;;;11.90;;
54923;SDS011;40825;52.270;20.984;2024-01-30T04:48:28;26.70;;;12.00;;
54923;SDS011;40825;52.270;20.984;2024-01-30T04:50:54;27.10;;;12.60;;
54923;SDS011;40825;52.270;20.984;2024-01-30T04:53:21;28.40;;;12.20;;
54923;SDS011;40825;52.270;20.984;2024-01-30T04:55:46;23.30;;;12.60;;
54923;SDS011;40825;52.270;20.984;2024-01-30T04:58:12;27.00;;;12.30;;
54923;SDS011;40825;52.270;20.984;2024-01-30T05:00:38;25.20;;;11.70;;
54923;SDS011;40825;52.270;20.984;2024-01-30T05:03:03;27.50;;;12.20;;
54923;SDS011;40825;52.270;20.984;2024-01-30T05:05:29;26.10;;;10.90;;
54923;SDS011;40825;52.270;20.984;2024-01-30T05:07:55;29.40;;;11.50;;
54923;SDS011;40825;52.270;20.984;2024-01-30T05:10:21;26.80;;;12.00;;
54923;SDS011;40825;52.270;20.984;2024-01-30T05:12:46;25.90;;;12.20;;
54923;SDS011;40825;52.270;20.984;2024-01-30T05:15:12;28.40;;;10.80;;
54923;SDS011;40825;52.270;20.984;2024-01-30T05:17:37;31.50;;;11.80;;
54923;SDS011;40825;52.270;20.984;2024-01-30T05:20:03;27.20;;;11.30;;
54923;SDS011;40825;52.270;20.984;2024-01-30T05:22:30;26.50;;;12.60;;
54923;SDS011;40825;52.270;20.984;2024-01-30T05:24:55;28.50;;;13.40;;
54923;SDS011;40825;52.270;20.984;2024-01-30T05:27:21;24.70;;;11.90;;
54923;SDS011;40825;52.270;20.984;2024-01-30T05:29:47;24.20;;;11.00;;
54923;SDS011;40825;52.270;20.984;2024-01-30T05:32:13;30.20;;;13.00;;
54923;SDS011;40825;52.270;20.984;2024-01-30T05:34:39;27.50;;;11.80;;
54923;SDS011;40825;52.270;20.984;2024-01-30T05:37:04;25.80;;;11.80;;
54923;SDS011;40825;52.270;20.984;2024-01-30T05:39:30;27.20;;;11.50;;
54923;SDS011;40825;52.270;20.984;2024-01-30T05:41:58;27.50;;;11.50;;
54923;SDS011;40825;52.270;20.984;2024-01-30T05:44:24;28.00;;;11.80;;
54923;SDS011;40825;52.270;20.984;2024-01-30T05:46:49;29.60;;;12.10;;
54923;SDS011;40825;52.270;20.984;2024-01-30T05:49:15;28.10;;;12.40;;
54923;SDS011;40825;52.270;20.984;2024-01-30T05:51:41;28.20;;;12.30;;
54923;SDS011;40825;52.270;20.984;2024-01-30T05:54:06;24.60;;;11.80;;
54923;SDS011;40825;52.270;20.984;2024-01-30T05:56:34;28.60;;;11.90;;
54923;SDS011;40825;52.270;20.984;2024-01-30T05:59:00;28.70;;;12.90;;
54923;SDS011;40825;52.270;20.984;2024-01-30T06:01:26;26.80;;;11.50;;
54923;SDS011;40825;52.270;20.984;2024-01-30T06:03:51;28.30;;;12.10;;
54923;SDS011;40825;52.270;20.984;2024-01-30T06:06:17;22.40;;;11.60;;
54923;SDS011;40825;52.270;20.984;2024-01-30T06:08:43;30.80;;;12.10;;
54923;SDS011;40825;52.270;20.984;2024-01-30T06:11:11;26.30;;;11.80;;
54923;SDS011;40825;52.270;20.984;2024-01-30T06:13:37;28.20;;;11.70;;
54923;SDS011;40825;52.270;20.984;2024-01-30T06:16:03;29.80;;;11.80;;
54923;SDS011;40825;52.270;20.984;2024-01-30T06:18:29;24.50;;;12.00;;
54923;SDS011;40825;52.270;20.984;2024-01-30T06:20:56;27.10;;;12.50;;
54923;SDS011;40825;52.270;20.984;2024-01-30T06:23:22;26.80;;;11.40;;
54923;SDS011;40825;52.270;20.984;2024-01-30T06:25:48;27.60;;;11.10;;
54923;SDS011;40825;52.270;20.984;2024-01-30T06:28:16;25.80;;;12.30;;
54923;SDS011;40825;52.270;20.984;2024-01-30T06:30:42;25.20;;;11.90;;
54923;SDS011;40825;52.270;20.984;2024-01-30T06:33:08;25.20;;;12.30;;
54923;SDS011;40825;52.270;20.984;2024-01-30T06:35:36;28.60;;;11.60;;
54923;SDS011;40825;52.270;20.984;2024-01-30T06:38:05;22.00;;;11.10;;
54923;SDS011;40825;52.270;20.984;2024-01-30T06:40:31;25.10;;;11.20;;
54923;SDS011;40825;52.270;20.984;2024-01-30T06:42:57;32.80;;;13.10;;
54923;SDS011;40825;52.270;20.984;2024-01-30T06:45:22;28.60;;;12.30;;
54923;SDS011;40825;52.270;20.984;2024-01-30T06:47:48;28.30;;;12.10;;
54923;SDS011;40825;52.270;20.984;2024-01-30T06:50:14;25.50;;;11.10;;
54923;SDS011;40825;52.270;20.984;2024-01-30T06:52:40;25.30;;;11.50;;
54923;SDS011;40825;52.270;20.984;2024-01-30T06:55:05;23.60;;;11.60;;
54923;SDS011;40825;52.270;20.984;2024-01-30T06:57:31;27.50;;;12.00;;
54923;SDS011;40825;52.270;20.984;2024-01-30T06:59:57;27.00;;;12.50;;
54923;SDS011;40825;52.270;20.984;2024-01-30T07:02:23;26.20;;;11.20;;
54923;SDS011;40825;52.270;20.984;2024-01-30T07:04:49;27.20;;;11.70;;
54923;SDS011;40825;52.270;20.984;2024-01-30T07:07:15;29.00;;;12.00;;
54923;SDS011;40825;52.270;20.984;2024-01-30T07:09:40;27.70;;;12.30;;
54923;SDS011;40825;52.270;20.984;2024-01-30T07:12:06;26.20;;;11.00;;
54923;SDS011;40825;52.270;20.984;2024-01-30T07:14:33;26.80;;;12.20;;
54923;SDS011;40825;52.270;20.984;2024-01-30T07:17:01;28.60;;;11.50;;
54923;SDS011;40825;52.270;20.984;2024-01-30T07:19:27;26.90;;;12.60;;
54923;SDS011;40825;52.270;20.984;2024-01-30T07:21:53;27.90;;;11.40;;
54923;SDS011;40825;52.270;20.984;2024-01-30T07:24:19;28.10;;;11.60;;
54923;SDS011;40825;52.270;20.984;2024-01-30T07:26:45;27.50;;;12.70;;
54923;SDS011;40825;52.270;20.984;2024-01-30T07:29:19;27.20;;;11.40;;
54923;SDS011;40825;52.270;20.984;2024-01-30T07:31:47;29.60;;;13.00;;
54923;SDS011;40825;52.270;20.984;2024-01-30T07:34:13;23.70;;;11.20;;
54923;SDS011;40825;52.270;20.984;2024-01-30T07:36:39;28.10;;;12.00;;
54923;SDS011;40825;52.270;20.984;2024-01-30T07:39:04;27.00;;;11.80;;
54923;SDS011;40825;52.270;20.984;2024-01-30T07:41:35;25.70;;;11.30;;
54923;SDS011;40825;52.270;20.984;2024-01-30T07:44:01;25.50;;;10.60;;
54923;SDS011;40825;52.270;20.984;2024-01-30T07:46:26;24.60;;;11.50;;
54923;SDS011;40825;52.270;20.984;2024-01-30T07:48:52;27.60;;;10.70;;
54923;SDS011;40825;52.270;20.984;2024-01-30T07:51:18;27.60;;;10.90;;
54923;SDS011;40825;52.270;20.984;2024-01-30T07:53:44;26.60;;;12.00;;
54923;SDS011;40825;52.270;20.984;2024-01-30T07:56:10;24.70;;;11.80;;
54923;SDS011;40825;52.270;20.984;2024-01-30T07:58:36;26.30;;;11.30;;
54923;SDS011;40825;52.270;20.984;2024-01-30T08:01:02;23.50;;;10.40;;
54923;SDS011;40825;52.270;20.984;2024-01-30T08:03:28;25.30;;;11.10;;
54923;SDS011;40825;52.270;20.984;2024-01-30T08:05:54;25.40;;;11.20;;
54923;SDS011;40825;52.270;20.984;2024-01-30T08:08:23;25.50;;;11.30;;
54923;SDS011;40825;52.270;20.984;2024-01-30T08:10:48;23.50;;;11.00;;
54923;SDS011;40825;52.270;20.984;2024-01-30T08:13:15;28.80;;;11.50;;
54923;SDS011;40825;52.270;20.984;2024-01-30T08:15:40;26.00;;;11.50;;
54923;SDS011;40825;52.270;20.984;2024-01-30T08:18:06;23.00;;;11.40;;
54923;SDS011;40825;52.270;20.984;2024-01-30T08:20:32;23.80;;;12.20;;
54923;SDS011;40825;52.270;20.984;2024-01-30T08:22:58;29.90;;;12.50;;
54923;SDS011;40825;52.270;20.984;2024-01-30T08:25:25;25.40;;;11.80;;
54923;SDS011;40825;52.270;20.984;2024-01-30T08:27:55;26.70;;;11.70;;
54923;SDS011;40825;52.270;20.984;2024-01-30T08:30:20;23.80;;;12.30;;
54923;SDS011;40825;52.270;20.984;2024-01-30T08:32:46;23.50;;;11.50;;
54923;SDS011;40825;52.270;20.984;2024-01-30T08:35:12;27.00;;;12.10;;
54923;SDS011;40825;52.270;20.984;2024-01-30T08:37:40;27.30;;;11.70;;
54923;SDS011;40825;52.270;20.984;2024-01-30T08:40:06;24.10;;;11.00;;
54923;SDS011;40825;52.270;20.984;2024-01-30T08:42:33;24.40;;;11.80;;
54923;SDS011;40825;52.270;20.984;2024-01-30T08:44:59;25.90;;;11.00;;
54923;SDS011;40825;52.270;20.984;2024-01-30T08:47:27;28.40;;;11.70;;
54923;SDS011;40825;52.270;20.984;2024-01-30T08:49:53;23.50;;;11.30;;
54923;SDS011;40825;52.270;20.984;2024-01-30T08:52:19;26.30;;;10.50;;
54923;SDS011;40825;52.270;20.984;2024-01-30T08:54:48;23.60;;;12.50;;
54923;SDS011;40825;52.270;20.984;2024-01-30T08:57:13;26.20;;;12.50;;
54923;SDS011;40825;52.270;20.984;2024-01-30T08:59:39;27.80;;;11.50;;
54923;SDS011;40825;52.270;20.984;2024-01-30T09:02:05;26.20;;;11.30;;
54923;SDS011;40825;52.270;20.984;2024-01-30T09:04:39;21.60;;;10.00;;
54923;SDS011;40825;52.270;20.984;2024-01-30T09:07:27;26.00;;;10.80;;
54923;SDS011;40825;52.270;20.984;2024-01-30T09:09:52;25.50;;;10.60;;
54923;SDS011;40825;52.270;20.984;2024-01-30T09:12:18;23.60;;;10.40;;
54923;SDS011;40825;52.270;20.984;2024-01-30T09:14:44;23.60;;;10.40;;
54923;SDS011;40825;52.270;20.984;2024-01-30T09:19:51;25.30;;;11.70;;
54923;SDS011;40825;52.270;20.984;2024-01-30T09:22:19;22.30;;;10.70;;
54923;SDS011;40825;52.270;20.984;2024-01-30T09:24:45;25.50;;;10.50;;
54923;SDS011;40825;52.270;20.984;2024-01-30T09:27:10;21.60;;;9.40;;
54923;SDS011;40825;52.270;20.984;2024-01-30T09:29:38;21.50;;;9.30;;
54923;SDS011;40825;52.270;20.984;2024-01-30T09:32:04;24.20;;;10.00;;
54923;SDS011;40825;52.270;20.984;2024-01-30T09:34:31;22.50;;;9.60;;
54923;SDS011;40825;52.270;20.984;2024-01-30T09:36:58;25.80;;;10.30;;
54923;SDS011;40825;52.270;20.984;2024-01-30T09:39:25;19.50;;;8.90;;
54923;SDS011;40825;52.270;20.984;2024-01-30T09:44:59;20.40;;;8.70;;
54923;SDS011;40825;52.270;20.984;2024-01-30T09:47:25;23.00;;;9.10;;
54923;SDS011;40825;52.270;20.984;2024-01-30T09:49:51;19.70;;;8.50;;
54923;SDS011;40825;52.270;20.984;2024-01-30T09:52:17;16.40;;;8.70;;
54923;SDS011;40825;52.270;20.984;2024-01-30T09:54:44;19.40;;;8.90;;
54923;SDS011;40825;52.270;20.984;2024-01-30T09:57:11;20.60;;;10.20;;
54923;SDS011;40825;52.270;20.984;2024-01-30T09:59:37;19.40;;;7.80;;
54923;SDS011;40825;52.270;20.984;2024-01-30T10:02:03;17.80;;;8.90;;
54923;SDS011;40825;52.270;20.984;2024-01-30T10:04:30;19.70;;;8.50;;
54923;SDS011;40825;52.270;20.984;2024-01-30T10:06:56;18.90;;;9.20;;
54923;SDS011;40825;52.270;20.984;2024-01-30T10:09:24;21.90;;;8.30;;
54923;SDS011;40825;52.270;20.984;2024-01-30T10:11:50;17.90;;;8.80;;
54923;SDS011;40825;52.270;20.984;2024-01-30T10:14:17;17.50;;;8.00;;
54923;SDS011;40825;52.270;20.984;2024-01-30T10:16:42;17.90;;;8.00;;
54923;SDS011;40825;52.270;20.984;2024-01-30T10:19:10;19.90;;;8.50;;
54923;SDS011;40825;52.270;20.984;2024-01-30T10:21:36;18.00;;;8.40;;
54923;SDS011;40825;52.270;20.984;2024-01-30T10:24:02;18.50;;;8.30;;
54923;SDS011;40825;52.270;20.984;2024-01-30T10:26:28;18.20;;;7.70;;
54923;SDS011;40825;52.270;20.984;2024-01-30T10:28:54;18.90;;;8.30;;
54923;SDS011;40825;52.270;20.984;2024-01-30T10:31:23;19.90;;;8.80;;
54923;SDS011;40825;52.270;20.984;2024-01-30T10:33:49;20.20;;;8.20;;
54923;SDS011;40825;52.270;20.984;2024-01-30T10:36:15;18.50;;;7.70;;
54923;SDS011;40825;52.270;20.984;2024-01-30T10:38:49;16.80;;;8.20;;
54923;SDS011;40825;52.270;20.984;2024-01-30T10:41:16;23.30;;;8.80;;
54923;SDS011;40825;52.270;20.984;2024-01-30T10:43:50;21.10;;;8.10;;
54923;SDS011;40825;52.270;20.984;2024-01-30T10:46:29;17.20;;;8.10;;
54923;SDS011;40825;52.270;20.984;2024-01-30T10:48:59;19.50;;;8.00;;
54923;SDS011;40825;52.270;20.984;2024-01-30T10:51:28;21.30;;;7.80;;
54923;SDS011;40825;52.270;20.984;2024-01-30T10:53:55;19.50;;;8.30;;
54923;SDS011;40825;52.270;20.984;2024-01-30T10:56:21;18.00;;;8.20;;
54923;SDS011;40825;52.270;20.984;2024-01-30T10:58:51;17.10;;;7.80;;
54923;SDS011;40825;52.270;20.984;2024-01-30T11:01:19;20.20;;;8.40;;
54923;SDS011;40825;52.270;20.984;2024-01-30T11:03:54;15.40;;;7.20;;
54923;SDS011;40825;52.270;20.984;2024-01-30T11:06:23;19.20;;;7.70;;
54923;SDS011;40825;52.270;20.984;2024-01-30T11:09:00;16.50;;;8.10;;
54923;SDS011;40825;52.270;20.984;2024-01-30T11:11:29;18.20;;;7.80;;
54923;SDS011;40825;52.270;20.984;2024-01-30T11:13:54;17.20;;;7.50;;
54923;SDS011;40825;52.270;20.984;2024-01-30T11:16:20;19.80;;;8.50;;
54923;SDS011;40825;52.270;20.984;2024-01-30T11:18:50;19.10;;;7.80;;
54923;SDS011;40825;52.270;20.984;2024-01-30T11:21:16;17.40;;;7.60;;
54923;SDS011;40825;52.270;20.984;2024-01-30T11:26:15;19.80;;;7.80;;
54923;SDS011;40825;52.270;20.984;2024-01-30T11:28:40;14.00;;;7.10;;
54923;SDS011;40825;52.270;20.984;2024-01-30T11:31:06;16.20;;;6.60;;
54923;SDS011;40825;52.270;20.984;2024-01-30T11:33:32;18.00;;;7.60;;
54923;SDS011;40825;52.270;20.984;2024-01-30T11:35:59;17.00;;;8.10;;
54923;SDS011;40825;52.270;20.984;2024-01-30T11:38:27;15.20;;;7.60;;
54923;SDS011;40825;52.270;20.984;2024-01-30T11:40:56;16.90;;;8.60;;
54923;SDS011;40825;52.270;20.984;2024-01-30T11:45:56;16.80;;;7.30;;
54923;SDS011;40825;52.270;20.984;2024-01-30T11:48:25;18.70;;;7.10;;
54923;SDS011;40825;52.270;20.984;2024-01-30T11:50:51;18.00;;;8.10;;
54923;SDS011;40825;52.270;20.984;2024-01-30T11:53:20;18.60;;;9.40;;
54923;SDS011;40825;52.270;20.984;2024-01-30T11:55:49;19.20;;;8.20;;
54923;SDS011;40825;52.270;20.984;2024-01-30T11:58:24;17.00;;;7.20;;
54923;SDS011;40825;52.270;20.984;2024-01-30T12:00:56;21.40;;;8.10;;
54923;SDS011;40825;52.270;20.984;2024-01-30T12:06:03;17.30;;;7.80;;
54923;SDS011;40825;52.270;20.984;2024-01-30T12:08:38;18.30;;;8.40;;
54923;SDS011;40825;52.270;20.984;2024-01-30T12:11:06;19.70;;;8.10;;
54923;SDS011;40825;52.270;20.984;2024-01-30T12:13:35;19.20;;;8.40;;
54923;SDS011;40825;52.270;20.984;2024-01-30T12:16:05;21.50;;;9.00;;
54923;SDS011;40825;52.270;20.984;2024-01-30T12:18:37;18.70;;;8.50;;
54923;SDS011;40825;52.270;20.984;2024-01-30T12:21:12;20.90;;;8.90;;
54923;SDS011;40825;52.270;20.984;2024-01-30T12:23:38;17.70;;;8.40;;
54923;SDS011;40825;52.270;20.984;2024-01-30T12:26:03;19.70;;;8.00;;
54923;SDS011;40825;52.270;20.984;2024-01-30T12:31:01;19.20;;;8.00;;
54923;SDS011;40825;52.270;20.984;2024-01-30T12:33:31;19.40;;;8.30;;
54923;SDS011;40825;52.270;20.984;2024-01-30T12:36:02;16.30;;;7.80;;
54923;SDS011;40825;52.270;20.984;2024-01-30T12:38:33;19.60;;;8.70;;
54923;SDS011;40825;52.270;20.984;2024-01-30T12:41:22;22.10;;;10.10;;
54923;SDS011;40825;52.270;20.984;2024-01-30T12:43:54;20.10;;;8.90;;
54923;SDS011;40825;52.270;20.984;2024-01-30T12:46:20;20.40;;;8.60;;
54923;SDS011;40825;52.270;20.984;2024-01-30T12:48:46;20.00;;;8.40;;
54923;SDS011;40825;52.270;20.984;2024-01-30T12:51:15;18.90;;;8.20;;
54923;SDS011;40825;52.270;20.984;2024-01-30T12:53:41;20.10;;;8.30;;
54923;SDS011;40825;52.270;20.984;2024-01-30T12:56:07;19.20;;;9.30;;
54923;SDS011;40825;52.270;20.984;2024-01-30T12:58:35;19.40;;;9.20;;
54923;SDS011;40825;52.270;20.984;2024-01-30T13:01:04;21.60;;;8.90;;
54923;SDS011;40825;52.270;20.984;2024-01-30T13:03:30;18.40;;;8.50;;
54923;SDS011;40825;52.270;20.984;2024-01-30T13:06:09;18.60;;;8.70;;
54923;SDS011;40825;52.270;20.984;2024-01-30T13:08:35;18.70;;;8.20;;
54923;SDS011;40825;52.270;20.984;2024-01-30T13:11:00;16.70;;;8.50;;
54923;SDS011;40825;52.270;20.984;2024-01-30T13:13:26;18.70;;;8.60;;
54923;SDS011;40825;52.270;20.984;2024-01-30T13:15:54;17.20;;;8.40;;
54923;SDS011;40825;52.270;20.984;2024-01-30T13:18:23;17.20;;;7.60;;
54923;SDS011;40825;52.270;20.984;2024-01-30T13:20:49;22.90;;;8.70;;
54923;SDS011;40825;52.270;20.984;2024-01-30T13:23:20;19.50;;;8.70;;
54923;SDS011;40825;52.270;20.984;2024-01-30T13:25:51;15.80;;;7.20;;
54923;SDS011;40825;52.270;20.984;2024-01-30T13:31:35;18.70;;;7.60;;
54923;SDS011;40825;52.270;20.984;2024-01-30T13:34:04;18.10;;;8.70;;
54923;SDS011;40825;52.270;20.984;2024-01-30T13:36:32;18.50;;;8.30;;
54923;SDS011;40825;52.270;20.984;2024-01-30T13:38:58;18.20;;;8.00;;
54923;SDS011;40825;52.270;20.984;2024-01-30T13:41:23;19.80;;;7.50;;
54923;SDS011;40825;52.270;20.984;2024-01-30T13:43:49;19.90;;;8.10;;
54923;SDS011;40825;52.270;20.984;2024-01-30T13:46:15;16.40;;;7.50;;
54923;SDS011;40825;52.270;20.984;2024-01-30T13:48:41;17.80;;;8.40;;
54923;SDS011;40825;52.270;20.984;2024-01-30T13:51:06;20.60;;;8.10;;
54923;SDS011;40825;52.270;20.984;2024-01-30T13:53:32;18.90;;;7.80;;
54923;SDS011;40825;52.270;20.984;2024-01-30T13:56:00;22.00;;;8.20;;
54923;SDS011;40825;52.270;20.984;2024-01-30T13:58:28;19.60;;;8.50;;
54923;SDS011;40825;52.270;20.984;2024-01-30T14:00:54;17.90;;;8.00;;
54923;SDS011;40825;52.270;20.984;2024-01-30T14:03:41;22.30;;;8.70;;
54923;SDS011;40825;52.270;20.984;2024-01-30T14:06:11;18.50;;;8.10;;
54923;SDS011;40825;52.270;20.984;2024-01-30T14:08:40;19.20;;;8.10;;
54923;SDS011;40825;52.270;20.984;2024-01-30T14:11:09;18.80;;;9.10;;
54923;SDS011;40825;52.270;20.984;2024-01-30T14:13:45;21.20;;;8.20;;
54923;SDS011;40825;52.270;20.984;2024-01-30T14:19:28;20.00;;;8.30;;
54923;SDS011;40825;52.270;20.984;2024-01-30T14:21:57;17.30;;;8.10;;
54923;SDS011;40825;52.270;20.984;2024-01-30T14:24:43;19.20;;;8.90;;
54923;SDS011;40825;52.270;20.984;2024-01-30T14:27:17;20.60;;;7.70;;
54923;SDS011;40825;52.270;20.984;2024-01-30T14:29:52;17.60;;;8.40;;
54923;SDS011;40825;52.270;20.984;2024-01-30T14:35:35;17.20;;;8.30;;
54923;SDS011;40825;52.270;20.984;2024-01-30T14:38:38;18.30;;;8.70;;
54923;SDS011;40825;52.270;20.984;2024-01-30T14:41:13;17.60;;;8.30;;
54923;SDS011;40825;52.270;20.984;2024-01-30T14:43:39;19.60;;;8.90;;
54923;SDS011;40825;52.270;20.984;2024-01-30T14:46:13;20.60;;;8.70;;
54923;SDS011;40825;52.270;20.984;2024-01-30T14:48:56;19.80;;;9.30;;
54923;SDS011;40825;52.270;20.984;2024-01-30T14:51:24;19.50;;;8.60;;
54923;SDS011;40825;52.270;20.984;2024-01-30T14:53:50;18.80;;;8.80;;